Time;durP1;ratioP1;P1;durP2;ratioP2;P2;SDS_P1;SDS_P2;PMS_P1;PMS_P2;Temp;Humidity;BMP_temperature;BMP_pressure;BME280_temperature;BME280_humidity;BME280_pressure;Samples;Min_cycle;Max_cycle;Signal;HPM_P1;HPM_P2
2021/12/24 00:01:15;;;;;;;17.87;15.53;;;7.10;1.00;7.30;99573.00;;;;5076068;28;20447;-78
2021/12/24 00:03:44;;;;;;;20.23;16.20;;;7.10;1.00;7.30;99591.00;;;;5077956;28;20447;-77
2021/12/24 00:06:13;;;;;;;19.10;16.20;;;7.10;1.00;7.30;99585.00;;;;5077715;28;20474;-78
2021/12/24 00:08:43;;;;;;;16.33;13.97;;;7.10;1.00;7.30;99597.00;;;;5079491;28;20450;-77
2021/12/24 00:11:14;;;;;;;19.50;16.80;;;7.00;1.00;7.20;99595.00;;;;5078451;28;20427;-76
2021/12/24 00:13:46;;;;;;;18.00;15.30;;;7.00;1.00;7.30;99596.00;;;;5073968;28;21008;-78
2021/12/24 00:16:21;;;;;;;22.57;15.80;;;7.10;1.00;7.20;99587.00;;;;5074468;28;20832;-77
2021/12/24 00:18:55;;;;;;;21.80;16.17;;;7.00;1.00;7.20;67856.00;;;;5076872;28;20554;-77
2021/12/24 00:35:32;;;;;;;22.37;18.43;;;6.90;1.00;7.10;67843.00;;;;5088872;28;20464;-78
2021/12/24 00:38:03;;;;;;;20.57;17.57;;;6.90;1.00;7.10;99556.00;;;;5086561;28;20486;-77
2021/12/24 00:40:35;;;;;;;18.57;16.77;;;6.90;1.00;7.10;99552.00;;;;5077063;22;20567;-76
2021/12/24 00:43:06;;;;;;;20.00;16.27;;;6.90;1.00;7.10;99546.00;;;;5033928;28;20544;-75
2021/12/24 00:45:37;;;;;;;20.43;18.30;;;6.90;1.00;7.20;99543.00;;;;5033679;28;20437;-76
2021/12/24 00:48:08;;;;;;;20.60;17.93;;;6.90;1.00;7.10;67840.00;;;;5033320;28;20452;-76
2021/12/24 00:50:51;;;;;;;23.73;19.60;;;6.80;1.00;217.30;159734.00;;;;5034851;28;20465;-76
2021/12/24 00:56:13;;;;;;;20.30;17.00;;;6.90;1.00;7.20;67843.00;;;;5031291;28;20452;-75
2021/12/24 00:58:44;;;;;;;22.43;17.70;;;6.90;1.00;217.30;159750.00;;;;5033593;28;21058;-76
2021/12/24 01:01:15;;;;;;;18.00;16.10;;;6.90;1.00;217.30;159766.00;;;;5037066;28;21001;-76
2021/12/24 01:03:44;;;;;;;23.30;17.60;;;6.90;1.00;7.20;67853.00;;;;5038275;28;20457;-75
2021/12/24 01:06:13;;;;;;;20.40;18.30;;;6.90;1.00;217.30;159788.00;;;;5038159;28;20447;-76
2021/12/24 01:08:41;;;;;;;18.87;16.97;;;6.90;1.00;7.30;67857.00;;;;5036715;28;20507;-77
2021/12/24 01:11:10;;;;;;;18.80;16.80;;;7.00;1.00;7.30;67864.00;;;;5038534;28;20524;-75
2021/12/24 01:13:40;;;;;;;21.20;16.80;;;7.00;1.00;7.30;99526.00;;;;5016613;28;20450;-76
2021/12/24 01:16:19;;;;;;;21.57;16.67;;;7.00;1.00;7.30;67881.00;;;;5017829;28;20469;-75
2021/12/24 01:18:56;;;;;;;18.30;16.20;;;7.10;1.00;7.30;67877.00;;;;5018755;28;20477;-76
2021/12/24 01:21:40;;;;;;;21.63;16.13;;;7.10;1.00;7.30;99529.00;;;;5016119;28;20469;-76
2021/12/24 01:24:14;;;;;;;18.40;15.77;;;7.10;1.00;7.40;99553.00;;;;5015501;28;20802;-77
2021/12/24 01:26:50;;;;;;;17.53;13.90;;;7.10;1.00;7.40;99526.00;;;;5014925;28;20488;-77
2021/12/24 01:29:44;;;;;;;18.83;15.90;;;7.20;1.00;52.70;159861.00;;;;5018181;28;20440;-76
2021/12/24 01:40:50;;;;;;;16.00;13.70;;;7.30;1.00;7.60;67946.00;;;;5043275;28;21013;-77
2021/12/24 01:43:18;;;;;;;16.37;14.00;;;7.40;1.00;52.70;159982.00;;;;5043104;28;20445;-75
2021/12/24 01:45:50;;;;;;;15.60;14.00;;;7.40;1.00;7.70;99552.00;;;;5035403;28;20445;-76
2021/12/24 01:48:20;;;;;;;16.20;13.87;;;7.60;1.00;7.70;99568.00;;;;5033009;28;20896;-76
2021/12/24 01:50:51;;;;;;;15.87;14.00;;;7.50;1.00;7.70;99561.00;;;;5033072;28;20565;-76
2021/12/24 01:53:25;;;;;;;16.37;14.50;;;7.40;1.00;7.70;99569.00;;;;5032990;28;20452;-76
2021/12/24 01:55:55;;;;;;;15.67;13.70;;;7.50;1.00;7.80;99566.00;;;;5032517;28;20445;-76
2021/12/24 01:58:27;;;;;;;15.40;13.27;;;7.50;1.00;7.80;99568.00;;;;5032793;28;20441;-76
2021/12/24 02:00:57;;;;;;;16.50;14.83;;;7.60;1.00;7.80;99543.00;;;;5032722;28;20465;-76
2021/12/24 02:03:28;;;;;;;14.80;12.37;;;7.60;1.00;7.80;99552.00;;;;5032509;28;20468;-76
2021/12/24 02:05:56;;;;;;;15.73;12.93;;;7.60;1.00;7.80;99551.00;;;;5033502;28;20461;-76
2021/12/24 02:08:24;;;;;;;15.47;13.00;;;7.60;1.00;7.80;99549.00;;;;5032838;28;20873;-76
2021/12/24 02:10:53;;;;;;;16.60;12.90;;;7.60;1.00;52.70;160039.00;;;;5032867;28;20492;-76
2021/12/24 02:13:23;;;;;;;18.80;14.13;;;7.70;1.00;7.80;99542.00;;;;5014109;28;20477;-76
2021/12/24 02:16:09;;;;;;;15.53;13.57;;;7.70;1.00;7.80;99544.00;;;;5011989;28;20438;-76
2021/12/24 02:28:16;;;;;;;17.37;12.63;;;7.70;1.00;7.90;99554.00;;;;5012744;28;20474;-76
2021/12/24 02:30:07;;;;;;;16.30;12.80;;;7.70;1.00;7.90;99520.00;;;;5012322;28;20472;-76
2021/12/24 02:32:40;;;;;;;15.90;12.70;;;7.70;1.00;8.00;99512.00;;;;5013254;28;21152;-77
2021/12/24 02:35:10;;;;;;;18.80;14.10;;;7.70;1.00;7.90;99514.00;;;;5014713;28;20544;-76
2021/12/24 02:37:40;;;;;;;16.80;13.43;;;7.70;1.00;7.90;99484.00;;;;5013702;28;20445;-76
2021/12/24 02:40:10;;;;;;;15.73;12.57;;;7.70;1.00;7.90;99501.00;;;;5029742;28;20482;-76
2021/12/24 02:42:38;;;;;;;16.67;12.93;;;7.70;1.00;7.90;99490.00;;;;5012619;28;20450;-77
2021/12/24 02:45:07;;;;;;;15.30;13.30;;;7.70;1.00;8.00;99508.00;;;;5011758;28;20444;-77
2021/12/24 02:47:42;;;;;;;14.40;13.00;;;7.70;1.00;8.00;99497.00;;;;5012202;28;20454;-75
2021/12/24 02:55:44;;;;;;;15.57;13.40;;;7.70;1.00;7.90;99496.00;;;;5011240;28;21041;-76
2021/12/24 02:58:13;;;;;;;14.10;12.30;;;7.70;1.00;217.30;160085.00;;;;5011679;28;20452;-77
2021/12/24 03:00:41;;;;;;;15.27;11.73;;;7.70;1.00;7.90;99503.00;;;;5011523;28;20865;-76
2021/12/24 03:03:10;;;;;;;14.27;12.77;;;7.70;1.00;8.00;99504.00;;;;5011742;28;20446;-76
2021/12/24 03:05:38;;;;;;;13.70;11.53;;;7.70;1.00;8.00;99501.00;;;;5011366;28;20492;-75
2021/12/24 03:08:08;;;;;;;13.50;11.70;;;7.70;1.00;8.00;99499.00;;;;5011579;28;20442;-75
2021/12/24 03:10:37;;;;;;;13.80;12.03;;;7.80;1.00;8.00;99436.00;;;;5011866;28;20466;-75
2021/12/24 03:13:06;;;;;;;12.50;11.20;;;7.70;1.00;8.00;99499.00;;;;5015343;28;20504;-76
2021/12/24 03:15:34;;;;;;;14.50;12.53;;;7.80;1.00;8.00;99503.00;;;;5011455;28;20544;-76
2021/12/24 03:18:02;;;;;;;15.07;12.93;;;7.80;1.00;8.00;99495.00;;;;5011602;28;20448;-76
2021/12/24 03:20:34;;;;;;;14.80;11.23;;;7.90;1.00;8.00;99494.00;;;;5028185;28;21100;-75
2021/12/24 03:23:11;;;;;;;14.63;11.77;;;7.80;1.00;8.00;99506.00;;;;5010947;28;20783;-76
2021/12/24 03:25:40;;;;;;;14.07;12.50;;;7.90;1.00;8.00;99500.00;;;;5010905;28;20429;-76
2021/12/24 03:28:09;;;;;;;14.73;12.83;;;7.80;1.00;8.10;99490.00;;;;5011143;28;20862;-76
2021/12/24 03:30:37;;;;;;;13.93;11.10;;;7.80;1.00;8.10;99488.00;;;;5011138;28;20557;-76
2021/12/24 03:33:05;;;;;;;12.40;11.00;;;7.80;1.00;8.10;99472.00;;;;5011671;28;20457;-76
2021/12/24 03:35:34;;;;;;;14.40;11.10;;;7.90;1.00;8.10;99469.00;;;;5012781;28;20442;-76
2021/12/24 03:38:02;;;;;;;12.60;11.10;;;7.80;1.00;8.10;99496.00;;;;5011578;28;20465;-76
2021/12/24 03:40:31;;;;;;;14.53;12.13;;;7.80;1.00;8.10;99496.00;;;;5025836;28;20501;-75
2021/12/24 03:43:01;;;;;;;14.33;11.60;;;7.90;1.00;8.10;99480.00;;;;5031476;28;20548;-75
2021/12/24 03:45:36;;;;;;;13.53;12.17;;;7.90;1.00;8.10;99485.00;;;;5031012;28;20453;-76
2021/12/24 03:48:15;;;;;;;12.70;10.87;;;7.80;1.00;8.10;99468.00;;;;5031139;28;20441;-76
2021/12/24 03:50:51;;;;;;;13.97;12.53;;;7.90;1.00;8.10;99484.00;;;;5031361;28;20565;-75
2021/12/24 03:56:05;;;;;;;14.43;12.17;;;7.90;1.00;8.10;99468.00;;;;5033865;28;20468;-76
2021/12/24 03:58:35;;;;;;;13.60;12.20;;;7.80;1.00;8.10;68042.00;;;;5040749;28;20445;-76
2021/12/24 04:01:37;;;;;;;14.23;11.67;;;7.80;1.00;8.10;99469.00;;;;5040363;28;20472;-76
2021/12/24 04:04:24;;;;;;;13.90;11.17;;;7.80;1.00;8.10;68042.00;;;;5037410;28;20596;-76
2021/12/24 04:07:13;;;;;;;12.97;11.60;;;7.80;1.00;8.10;99475.00;;;;5036679;28;20479;-78
2021/12/24 04:10:03;;;;;;;12.47;11.23;;;7.80;1.00;8.10;99471.00;;;;5057934;28;20479;-79
2021/12/24 04:13:00;;;;;;;13.37;11.00;;;7.90;1.00;8.10;99470.00;;;;5045025;28;20457;-78
2021/12/24 04:15:30;;;;;;;11.77;10.57;;;7.90;1.00;8.10;99476.00;;;;5058370;28;20437;-77
2021/12/24 04:17:58;;;;;;;13.50;10.60;;;7.90;1.00;8.20;99479.00;;;;5058467;28;20431;-77
2021/12/24 04:25:59;;;;;;;11.43;10.33;;;8.00;1.00;8.20;99476.00;;;;5037190;28;20936;-77
2021/12/24 04:28:28;;;;;;;13.23;10.53;;;8.00;1.00;8.10;99469.00;;;;5031311;28;20961;-76
2021/12/24 04:31:00;;;;;;;12.57;11.27;;;8.00;1.00;217.30;160198.00;;;;5030407;28;20492;-76
2021/12/24 04:33:35;;;;;;;13.23;11.10;;;8.10;1.00;8.20;99459.00;;;;5032255;28;20451;-76
2021/12/24 04:36:20;;;;;;;13.20;10.60;;;8.10;1.00;8.20;68081.00;;;;5033854;28;20528;-76
2021/12/24 04:39:09;;;;;;;11.77;10.67;;;8.10;1.00;8.20;99454.00;;;;5035336;28;20439;-76
2021/12/24 04:52:57;;;;;;;11.07;9.90;;;8.20;1.00;8.30;99470.00;;;;5015925;28;20418;-77
2021/12/24 05:01:22;;;;;;;9.40;8.50;;;8.20;1.00;8.30;99487.00;;;;5013186;28;21158;-76
2021/12/24 05:03:53;;;;;;;11.40;9.50;;;8.20;1.00;8.30;99475.00;;;;5014000;28;20461;-76
2021/12/24 05:06:32;;;;;;;14.40;9.80;;;8.20;1.00;8.30;99472.00;;;;5015410;28;20441;-76
2021/12/24 05:09:07;;;;;;;10.00;9.00;;;8.30;1.00;8.40;99480.00;;;;5030569;28;20832;-76
2021/12/24 05:11:36;;;;;;;10.13;9.07;;;8.30;1.00;8.40;99477.00;;;;5010598;28;20478;-76
2021/12/24 05:14:05;;;;;;;11.10;9.57;;;8.30;1.00;8.40;99479.00;;;;4994193;28;20879;-76
2021/12/24 05:16:48;;;;;;;13.90;9.10;;;8.30;1.00;8.40;99461.00;;;;4994511;28;20446;-77
2021/12/24 05:22:44;;;;;;;11.20;10.10;;;8.40;1.00;8.50;99485.00;;;;4995180;28;20997;-77
2021/12/24 05:25:15;;;;;;;11.27;10.17;;;8.40;1.00;8.50;99478.00;;;;4994988;28;20458;-77
2021/12/24 05:27:43;;;;;;;12.40;9.30;;;8.40;1.00;8.50;99468.00;;;;4994812;28;20970;-77
2021/12/24 05:30:13;;;;;;;10.57;9.47;;;8.40;1.00;8.50;99475.00;;;;4994635;28;20569;-77
2021/12/24 05:32:42;;;;;;;11.50;8.70;;;8.50;1.00;8.50;99474.00;;;;4995218;28;20458;-77
2021/12/24 05:35:12;;;;;;;10.70;9.70;;;8.50;1.00;8.50;99478.00;;;;5002217;28;20526;-77
2021/12/24 05:37:40;;;;;;;10.27;9.00;;;8.50;1.00;8.60;99478.00;;;;5003152;28;20828;-77
2021/12/24 05:40:10;;;;;;;9.80;8.80;;;8.50;1.00;8.60;99475.00;;;;5003220;28;21062;-77
2021/12/24 05:42:39;;;;;;;10.80;9.70;;;8.40;1.00;8.60;99488.00;;;;5004252;28;20590;-77
2021/12/24 05:45:10;;;;;;;10.60;9.47;;;8.50;1.00;8.60;99484.00;;;;5003084;28;20983;-77
2021/12/24 05:47:58;;;;;;;11.17;10.07;;;8.50;1.00;217.30;160392.00;;;;5004730;28;20434;-77
2021/12/24 05:50:28;;;;;;;10.37;8.90;;;8.50;1.00;8.60;99477.00;;;;5001535;28;20471;-77
2021/12/24 05:52:56;;;;;;;10.80;9.53;;;8.50;1.00;8.60;99479.00;;;;4996730;28;20453;-77
2021/12/24 05:55:53;;;;;;;10.60;9.60;;;8.50;1.00;8.60;99482.00;;;;4986460;28;20459;-77
2021/12/24 05:58:24;;;;;;;11.40;9.43;;;8.50;1.00;8.50;99488.00;;;;4999453;28;20447;-78
2021/12/24 06:01:01;;;;;;;11.40;10.20;;;8.40;1.00;8.50;99480.00;;;;5002430;28;20505;-77
2021/12/24 06:03:40;;;;;;;10.70;9.60;;;8.40;1.00;8.50;99469.00;;;;5003781;28;20446;-77
2021/12/24 06:06:09;;;;;;;13.00;10.97;;;8.30;1.00;8.40;99471.00;;;;5004999;28;20459;-78
2021/12/24 06:08:38;;;;;;;11.13;9.73;;;8.30;1.00;8.40;99476.00;;;;5003914;28;20545;-77
2021/12/24 06:11:07;;;;;;;11.20;10.03;;;8.20;1.00;8.40;99466.00;;;;4996603;28;20451;-77
2021/12/24 06:13:36;;;;;;;14.30;10.50;;;8.20;1.00;8.40;99467.00;;;;4995274;28;20451;-77
2021/12/24 06:16:07;;;;;;;12.10;9.73;;;8.20;1.00;8.40;99468.00;;;;4996864;28;20457;-78
2021/12/24 06:18:38;;;;;;;12.40;11.10;;;8.20;1.00;8.40;68115.00;;;;5001602;28;20454;-77
2021/12/24 06:21:09;;;;;;;11.50;10.20;;;8.20;1.00;8.40;99469.00;;;;4997790;28;20565;-77
2021/12/24 06:23:39;;;;;;;12.73;11.43;;;8.20;1.00;8.40;99471.00;;;;4995823;28;20446;-77
2021/12/24 06:26:08;;;;;;;12.97;10.40;;;8.20;1.00;8.40;99465.00;;;;4995196;28;20439;-77
2021/12/24 06:28:38;;;;;;;13.87;11.13;;;8.20;1.00;8.40;99459.00;;;;4993458;28;20443;-77
2021/12/24 06:31:06;;;;;;;13.33;11.27;;;8.20;1.00;8.30;99466.00;;;;5009813;28;20471;-76
2021/12/24 06:33:35;;;;;;;14.53;11.10;;;8.20;1.00;8.30;99464.00;;;;4994839;28;20454;-77
2021/12/24 06:36:06;;;;;;;12.80;11.30;;;8.20;1.00;8.30;99468.00;;;;4993711;28;20881;-77
2021/12/24 06:38:36;;;;;;;16.27;13.33;;;8.20;1.00;8.40;99469.00;;;;4994689;28;20442;-77
2021/12/24 06:41:04;;;;;;;14.93;11.67;;;8.20;1.00;8.50;99468.00;;;;5031590;28;20560;-76
2021/12/24 06:43:33;;;;;;;13.20;11.90;;;8.30;1.00;217.30;160335.00;;;;5033295;28;20445;-77
2021/12/24 06:46:08;;;;;;;14.10;12.60;;;8.30;1.00;8.50;99471.00;;;;5032953;28;20464;-77
2021/12/24 06:48:37;;;;;;;14.10;11.57;;;8.30;1.00;8.50;99475.00;;;;5031791;28;21011;-77
2021/12/24 06:51:05;;;;;;;13.90;11.90;;;8.40;1.00;8.60;99478.00;;;;5032044;28;20476;-77
2021/12/24 06:53:35;;;;;;;13.47;12.07;;;8.40;1.00;8.60;99488.00;;;;5033125;28;20445;-77
2021/12/24 06:56:04;;;;;;;14.20;11.23;;;8.50;1.00;8.70;99480.00;;;;5032031;28;20503;-77
2021/12/24 06:58:35;;;;;;;13.83;12.23;;;8.50;1.00;8.60;99488.00;;;;5031896;28;20437;-77
2021/12/24 07:01:05;;;;;;;15.30;12.77;;;8.50;1.00;8.70;99479.00;;;;5031255;28;20563;-77
2021/12/24 07:03:34;;;;;;;13.83;12.30;;;8.50;1.00;8.70;99488.00;;;;5031725;28;20953;-77
2021/12/24 07:06:03;;;;;;;16.63;12.83;;;8.40;1.00;8.70;99489.00;;;;5032939;28;20547;-77
2021/12/24 07:08:31;;;;;;;17.70;13.50;;;8.50;1.00;52.70;160414.00;;;;5031566;28;20457;-77
2021/12/24 07:11:01;;;;;;;16.37;13.67;;;8.50;1.00;8.70;99495.00;;;;5031779;28;20457;-76
2021/12/24 07:13:30;;;;;;;14.27;12.50;;;8.50;1.00;8.70;99495.00;;;;5032712;28;20444;-76
2021/12/24 07:15:58;;;;;;;14.87;12.30;;;8.50;1.00;8.70;99503.00;;;;5030827;28;20449;-76
2021/12/24 07:18:27;;;;;;;14.97;12.57;;;8.50;1.00;8.70;99498.00;;;;5031048;28;20448;-76
2021/12/24 07:20:55;;;;;;;14.27;12.77;;;8.50;1.00;8.80;68201.00;;;;5032378;28;20463;-77
2021/12/24 07:23:23;;;;;;;13.67;12.20;;;8.60;1.00;8.70;99504.00;;;;5030608;28;20460;-77
2021/12/24 07:25:52;;;;;;;14.20;12.00;;;8.60;1.00;8.80;99525.00;;;;5031949;28;20440;-76
2021/12/24 07:28:21;;;;;;;13.10;11.80;;;8.60;1.00;8.80;68209.00;;;;5032395;28;20432;-78
2021/12/24 07:30:50;;;;;;;14.20;12.60;;;8.60;1.00;8.80;99525.00;;;;5032232;28;20445;-77
2021/12/24 07:33:18;;;;;;;13.83;12.00;;;8.60;1.00;8.80;99524.00;;;;5032124;28;20437;-77
2021/12/24 07:35:47;;;;;;;13.30;11.30;;;8.70;1.00;8.80;99519.00;;;;5031716;28;20480;-75
2021/12/24 07:38:16;;;;;;;15.37;12.03;;;8.70;1.00;8.80;99506.00;;;;5032045;28;20437;-75
2021/12/24 07:40:46;;;;;;;13.60;12.20;;;8.70;1.00;8.80;99505.00;;;;5015859;28;20924;-77
2021/12/24 07:43:15;;;;;;;15.60;12.90;;;8.70;1.00;8.80;99510.00;;;;5011518;28;20466;-76
2021/12/24 07:45:46;;;;;;;14.50;12.83;;;8.70;1.00;8.80;99504.00;;;;5011204;28;20453;-77
2021/12/24 07:48:15;;;;;;;13.70;12.20;;;8.70;1.00;8.80;99511.00;;;;5012815;28;20851;-76
2021/12/24 07:53:32;;;;;;;15.57;13.03;;;8.70;1.00;8.90;99455.00;;;;5012352;28;20925;-76
2021/12/24 07:56:00;;;;;;;14.97;12.40;;;8.80;1.00;217.30;160519.00;;;;5012924;28;20944;-75
2021/12/24 07:58:29;;;;;;;12.70;10.60;;;8.70;1.00;8.90;99481.00;;;;5012234;28;20444;-77
2021/12/24 08:00:58;;;;;;;14.20;11.20;;;8.70;1.00;8.90;99490.00;;;;5012104;28;20841;-76
2021/12/24 08:03:27;;;;;;;12.80;10.50;;;8.70;1.00;9.00;99501.00;;;;5010666;28;20487;-77
2021/12/24 08:05:56;;;;;;;11.83;10.43;;;8.80;1.00;9.00;99514.00;;;;5013215;28;20430;-77
2021/12/24 08:08:24;;;;;;;12.47;11.23;;;8.80;1.00;217.30;160583.00;;;;5012136;28;21041;-77
2021/12/24 08:10:53;;;;;;;12.70;10.60;;;8.80;1.00;9.10;99510.00;;;;5022108;28;20469;-76
2021/12/24 08:13:21;;;;;;;12.93;11.47;;;8.90;1.00;9.10;99510.00;;;;5005443;28;20457;-76
2021/12/24 08:15:53;;;;;;;13.93;10.53;;;8.90;1.00;9.20;99493.00;;;;4997359;28;20443;-76
2021/12/24 08:18:23;;;;;;;11.43;10.13;;;8.90;1.00;9.10;99485.00;;;;5005568;28;20451;-77
2021/12/24 08:20:51;;;;;;;11.37;10.17;;;8.90;1.00;9.20;99482.00;;;;5014163;28;20474;-76
2021/12/24 08:23:24;;;;;;;11.33;10.13;;;8.90;1.00;9.20;99478.00;;;;5009623;28;20938;-77
2021/12/24 08:25:58;;;;;;;11.57;10.13;;;8.90;1.00;9.20;99464.00;;;;5003228;28;20461;-78
2021/12/24 08:28:26;;;;;;;18.40;10.37;;;8.90;1.00;9.20;99473.00;;;;5001129;28;20445;-78
2021/12/24 08:30:55;;;;;;;17.80;10.13;;;9.00;1.00;9.30;99481.00;;;;4995379;28;20482;-75
2021/12/24 08:33:25;;;;;;;18.30;11.10;;;9.00;1.00;9.20;99456.00;;;;4993024;28;20817;-76
2021/12/24 08:35:53;;;;;;;13.23;10.13;;;9.00;1.00;9.20;99477.00;;;;4991807;28;20481;-76
2021/12/24 08:38:21;;;;;;;11.17;9.23;;;9.00;1.00;9.30;99466.00;;;;4992576;28;20455;-77
2021/12/24 08:40:50;;;;;;;14.23;10.47;;;9.00;1.00;9.30;99468.00;;;;5009307;28;20489;-77
2021/12/24 08:43:18;;;;;;;11.50;9.97;;;9.00;1.00;9.30;99471.00;;;;5015110;28;20480;-77
2021/12/24 08:45:47;;;;;;;14.83;9.93;;;9.10;1.00;9.40;99474.00;;;;5024790;28;20502;-77
2021/12/24 08:48:15;;;;;;;11.20;9.80;;;9.10;1.00;9.30;99468.00;;;;5025815;28;20877;-77
2021/12/24 08:50:45;;;;;;;13.67;11.20;;;9.10;1.00;9.40;99477.00;;;;5021393;28;20504;-79
2021/12/24 08:53:14;;;;;;;11.87;10.67;;;9.10;1.00;9.40;99472.00;;;;5011787;28;20481;-76
2021/12/24 08:55:43;;;;;;;13.00;10.97;;;9.10;1.00;9.40;99470.00;;;;5012800;28;20864;-77
2021/12/24 08:58:11;;;;;;;12.63;11.30;;;9.20;1.00;9.50;99490.00;;;;5012561;28;20893;-78
2021/12/24 09:00:40;;;;;;;14.20;12.00;;;9.20;1.00;9.50;99481.00;;;;5028432;28;20541;-76
2021/12/24 09:03:08;;;;;;;18.93;11.80;;;9.30;1.00;9.60;99463.00;;;;5011615;28;20479;-78
2021/12/24 09:05:40;;;;;;;11.57;10.23;;;9.50;1.00;9.70;99489.00;;;;5028020;28;20442;-78
2021/12/24 09:08:10;;;;;;;10.83;9.57;;;9.40;1.00;9.70;99477.00;;;;5012139;28;20545;-77
2021/12/24 09:10:40;;;;;;;10.60;9.27;;;9.50;1.00;9.80;99476.00;;;;5012473;28;20505;-76
2021/12/24 09:13:10;;;;;;;12.10;9.83;;;9.50;1.00;217.30;160928.00;;;;5011307;28;20500;-78
2021/12/24 09:15:42;;;;;;;11.00;9.00;;;9.50;1.00;9.90;99464.00;;;;5012042;28;20492;-77
2021/12/24 09:18:10;;;;;;;11.80;9.37;;;9.60;1.00;10.00;99480.00;;;;5016903;28;20441;-78
2021/12/24 09:20:42;;;;;;;11.20;8.80;;;9.70;1.00;10.00;99477.00;;;;5022344;28;20468;-78
2021/12/24 09:23:14;;;;;;;10.20;7.67;;;9.80;1.00;10.10;99463.00;;;;5033122;28;20504;-75
2021/12/24 09:25:42;;;;;;;10.77;9.20;;;9.90;1.00;10.20;99454.00;;;;5013394;28;20915;-75
2021/12/24 09:28:11;;;;;;;10.40;7.90;;;9.90;1.00;10.20;99447.00;;;;5013939;28;20457;-76
2021/12/24 09:30:40;;;;;;;9.50;7.40;;;9.90;1.00;10.20;99459.00;;;;5013306;28;20560;-76
2021/12/24 09:33:09;;;;;;;8.40;7.23;;;10.00;1.00;10.30;99445.00;;;;5014832;28;20441;-75
2021/12/24 09:35:37;;;;;;;9.97;7.50;;;10.00;1.00;10.30;99454.00;;;;5020037;28;20505;-77
2021/12/24 09:38:06;;;;;;;9.13;7.90;;;10.00;1.00;10.30;99438.00;;;;5028384;28;20477;-76
2021/12/24 09:40:35;;;;;;;10.40;7.50;;;10.00;1.00;10.30;99457.00;;;;5027528;28;20470;-77
2021/12/24 09:43:04;;;;;;;8.63;7.50;;;10.10;1.00;10.30;99458.00;;;;5018477;28;20814;-76
2021/12/24 09:45:32;;;;;;;10.87;7.57;;;10.00;1.00;10.40;99444.00;;;;5012987;28;20446;-75
2021/12/24 09:48:01;;;;;;;10.30;7.43;;;10.10;1.00;10.40;99453.00;;;;5014320;28;20442;-76
2021/12/24 09:50:29;;;;;;;9.90;7.63;;;10.10;1.00;10.50;99430.00;;;;5014533;28;20544;-76
2021/12/24 09:52:58;;;;;;;11.43;6.83;;;10.10;1.00;10.50;99434.00;;;;5013277;28;20453;-75
2021/12/24 09:55:29;;;;;;;10.47;7.80;;;10.20;1.00;10.50;99433.00;;;;5013251;28;20478;-75
2021/12/24 09:57:59;;;;;;;10.53;8.30;;;10.20;1.00;10.50;99421.00;;;;5014334;28;20426;-75
2021/12/24 10:00:28;;;;;;;9.60;7.10;;;10.20;1.00;10.40;99419.00;;;;5014174;28;20457;-75
2021/12/24 10:02:59;;;;;;;10.37;8.67;;;10.10;1.00;10.40;99422.00;;;;5012599;28;20481;-75
2021/12/24 10:05:38;;;;;;;9.40;7.43;;;10.10;1.00;10.50;99424.00;;;;5011961;28;20895;-76
2021/12/24 10:08:11;;;;;;;11.80;8.17;;;10.10;1.00;10.50;99408.00;;;;5014003;28;20521;-76
2021/12/24 10:10:43;;;;;;;10.07;7.70;;;10.20;1.00;10.50;99404.00;;;;5029149;28;20486;-75
2021/12/24 10:13:36;;;;;;;9.00;7.87;;;10.20;1.00;10.60;99415.00;;;;4997094;28;20435;-75
2021/12/24 10:16:07;;;;;;;11.83;8.00;;;10.30;1.00;10.60;99420.00;;;;4991604;28;20530;-76
2021/12/24 10:18:44;;;;;;;8.00;7.20;;;10.20;1.00;10.60;99408.00;;;;4994138;28;20447;-75
2021/12/24 10:21:16;;;;;;;8.67;7.23;;;10.20;1.00;10.50;99408.00;;;;4996176;28;20462;-77
2021/12/24 10:23:52;;;;;;;9.33;7.97;;;10.20;1.00;10.50;99403.00;;;;4994552;28;21144;-74
2021/12/24 10:26:40;;;;;;;9.60;8.57;;;10.30;1.00;10.60;99404.00;;;;4994561;28;20414;-77
2021/12/24 10:29:12;;;;;;;8.53;7.53;;;10.30;1.00;217.30;161234.00;;;;4995235;28;20485;-76
2021/12/24 10:31:44;;;;;;;9.03;6.67;;;10.40;1.00;10.60;68622.00;;;;4994915;28;20459;-76
2021/12/24 10:34:26;;;;;;;9.53;8.27;;;10.30;1.00;10.60;99421.00;;;;4992737;28;20446;-76
2021/12/24 10:37:18;;;;;;;10.17;7.20;;;10.30;1.00;10.50;99162.00;;;;4993995;28;20468;-77
2021/12/24 10:39:50;;;;;;;9.70;7.67;;;10.20;1.00;10.60;68611.00;;;;4994225;28;20438;-75
2021/12/24 10:42:28;;;;;;;10.33;7.77;;;10.20;1.00;217.30;161257.00;;;;4992334;28;20434;-75
2021/12/24 10:45:01;;;;;;;10.57;6.80;;;10.30;1.00;10.60;99423.00;;;;4996224;28;20474;-76
2021/12/24 10:47:39;;;;;;;7.20;6.50;;;10.30;1.00;52.70;161247.00;;;;4995888;28;20538;-76
2021/12/24 10:50:27;;;;;;;9.30;8.27;;;10.30;1.00;10.60;99425.00;;;;4995316;28;20489;-77
2021/12/24 10:53:13;;;;;;;9.53;7.67;;;10.30;1.00;10.60;68614.00;;;;4994433;28;20435;-77
2021/12/24 10:55:48;;;;;;;9.23;7.77;;;10.30;1.00;10.70;99409.00;;;;4993900;28;20538;-76
2021/12/24 10:58:19;;;;;;;11.80;8.40;;;10.30;1.00;10.70;99424.00;;;;4993495;28;20431;-76
2021/12/24 11:00:52;;;;;;;11.93;7.07;;;10.30;1.00;10.70;99411.00;;;;4992870;28;20561;-76
2021/12/24 11:03:23;;;;;;;11.93;8.03;;;10.40;1.00;10.60;99405.00;;;;4992970;28;20459;-75
2021/12/24 11:05:55;;;;;;;9.30;7.97;;;10.30;1.00;10.60;99411.00;;;;4992528;28;20439;-77
2021/12/24 11:08:26;;;;;;;8.80;7.60;;;10.30;1.00;10.50;68601.00;;;;4993800;28;20924;-76
2021/12/24 11:10:58;;;;;;;9.83;8.03;;;10.30;1.00;52.70;161200.00;;;;4993310;28;20571;-76
2021/12/24 11:13:32;;;;;;;9.37;8.37;;;10.20;1.00;10.50;99399.00;;;;4994165;28;20439;-78
2021/12/24 11:16:03;;;;;;;8.90;7.60;;;10.20;1.00;10.50;68589.00;;;;4992948;28;20955;-76
2021/12/24 11:18:35;;;;;;;10.03;8.50;;;10.20;1.00;217.30;161269.00;;;;4994727;28;20427;-77
2021/12/24 11:21:07;;;;;;;8.77;7.87;;;10.30;1.00;217.30;161295.00;;;;4994245;28;20462;-76
2021/12/24 11:23:38;;;;;;;11.27;8.40;;;10.40;1.00;10.80;99371.00;;;;4993451;28;20923;-76
2021/12/24 11:26:12;;;;;;;10.60;8.60;;;10.40;1.00;10.90;68668.00;;;;4993236;28;20423;-77
2021/12/24 11:28:42;;;;;;;11.20;8.63;;;10.60;1.00;10.90;99402.00;;;;4994179;28;20916;-78
2021/12/24 11:31:14;;;;;;;12.53;8.47;;;10.60;1.00;10.90;68680.00;;;;4993366;28;20476;-76
2021/12/24 11:33:46;;;;;;;12.23;8.77;;;10.60;1.00;10.90;99418.00;;;;4993454;28;20896;-76
2021/12/24 11:36:18;;;;;;;9.83;8.80;;;10.60;1.00;10.90;68674.00;;;;4991989;28;20501;-76
2021/12/24 11:38:50;;;;;;;9.77;8.80;;;10.60;1.00;10.90;99403.00;;;;4992971;28;20438;-76
2021/12/24 11:41:22;;;;;;;9.53;8.30;;;10.60;1.00;10.90;99405.00;;;;4994040;28;20466;-77
2021/12/24 11:43:54;;;;;;;9.30;7.57;;;10.60;1.00;217.30;161386.00;;;;4992158;28;20549;-78
2021/12/24 11:46:26;;;;;;;10.03;7.80;;;10.60;1.00;11.00;99383.00;;;;4992998;28;20454;-77
2021/12/24 11:48:57;;;;;;;9.07;7.70;;;10.60;1.00;11.00;68704.00;;;;4993381;28;20459;-77
2021/12/24 11:51:29;;;;;;;10.80;8.20;;;10.60;1.00;11.10;99392.00;;;;4993058;28;20472;-76
2021/12/24 11:54:01;;;;;;;9.33;7.80;;;10.70;1.00;11.20;68751.00;;;;4992100;28;20899;-76
2021/12/24 11:56:29;;;;;;;9.53;7.83;;;10.90;1.00;11.20;99380.00;;;;4991267;28;20475;-76
2021/12/24 11:58:59;;;;;;;10.43;7.77;;;10.90;1.00;11.40;99403.00;;;;4992470;28;20430;-76
2021/12/24 12:01:38;;;;;;;10.40;8.10;;;10.90;1.00;11.40;99395.00;;;;4991732;28;20510;-77
2021/12/24 12:04:13;;;;;;;9.00;7.60;;;11.00;1.00;11.40;68803.00;;;;4992556;28;20498;-75
2021/12/24 12:06:42;;;;;;;10.27;8.37;;;11.00;1.00;217.30;161614.00;;;;4992507;28;20477;-76
2021/12/24 12:09:12;;;;;;;9.87;8.23;;;11.00;1.00;11.40;99387.00;;;;4993027;28;20443;-76
2021/12/24 12:11:44;;;;;;;8.60;7.20;;;11.00;1.00;11.50;68806.00;;;;4994357;28;20491;-77
2021/12/24 12:14:27;;;;;;;10.93;8.20;;;11.10;1.00;11.40;99378.00;;;;4993698;28;20441;-77
2021/12/24 12:17:00;;;;;;;10.03;7.70;;;11.00;1.00;11.60;99367.00;;;;4991947;28;20458;-77
2021/12/24 12:19:43;;;;;;;11.40;8.60;;;11.10;1.00;11.80;99133.00;;;;4992736;28;20439;-75
2021/12/24 12:22:19;;;;;;;10.03;8.70;;;11.30;1.00;11.80;99161.00;;;;4993031;28;20451;-78
2021/12/24 12:27:38;;;;;;;8.27;7.47;;;11.60;1.00;12.10;99187.00;;;;4992721;28;20786;-75
2021/12/24 12:30:29;;;;;;;9.70;7.70;;;11.70;1.00;12.50;99367.00;;;;4992582;28;20462;-78
2021/12/24 12:33:11;;;;;;;11.33;8.63;;;12.00;1.00;12.10;99361.00;;;;4992081;28;20438;-76
2021/12/24 12:35:45;;;;;;;11.13;8.13;;;11.90;1.00;12.40;99352.00;;;;4993407;28;20434;-77